sensor_id;sensor_type;location;lat;lon;timestamp;temperature;humidity
31783;DHT22;18351;47.560;9.708;2022-09-03T00:00:09;17.20;99.90
31783;DHT22;18351;47.560;9.708;2022-09-03T00:02:42;17.20;99.90
31783;DHT22;18351;47.560;9.708;2022-09-03T00:10:32;17.10;99.90
31783;DHT22;18351;47.560;9.708;2022-09-03T00:13:01;17.00;99.90
31783;DHT22;18351;47.560;9.708;2022-09-03T00:15:31;17.00;99.90
31783;DHT22;18351;47.560;9.708;2022-09-03T00:18:22;17.00;99.90
31783;DHT22;18351;47.560;9.708;2022-09-03T00:20:58;17.00;99.90
31783;DHT22;18351;47.560;9.708;2022-09-03T00:23:37;17.00;99.90
31783;DHT22;18351;47.560;9.708;2022-09-03T00:28:45;16.90;99.90
31783;DHT22;18351;47.560;9.708;2022-09-03T00:31:34;17.00;99.90
31783;DHT22;18351;47.560;9.708;2022-09-03T00:36:41;17.10;99.90
31783;DHT22;18351;47.560;9.708;2022-09-03T00:39:18;17.10;99.90
31783;DHT22;18351;47.560;9.708;2022-09-03T00:53:09;17.10;99.90
31783;DHT22;18351;47.560;9.708;2022-09-03T00:56:35;17.20;99.90
31783;DHT22;18351;47.560;9.708;2022-09-03T01:01:49;17.10;99.90
31783;DHT22;18351;47.560;9.708;2022-09-03T01:07:22;17.20;99.90
31783;DHT22;18351;47.560;9.708;2022-09-03T01:18:13;17.20;99.90
31783;DHT22;18351;47.560;9.708;2022-09-03T01:23:31;17.20;99.90
31783;DHT22;18351;47.560;9.708;2022-09-03T01:31:35;17.10;99.90
31783;DHT22;18351;47.560;9.708;2022-09-03T01:34:19;17.10;99.90
31783;DHT22;18351;47.560;9.708;2022-09-03T01:37:04;17.00;99.90
31783;DHT22;18351;47.560;9.708;2022-09-03T01:39:58;17.00;99.90
31783;DHT22;18351;47.560;9.708;2022-09-03T01:42:32;17.00;99.90
31783;DHT22;18351;47.560;9.708;2022-09-03T01:45:23;16.90;99.90
31783;DHT22;18351;47.560;9.708;2022-09-03T02:02:04;17.30;99.90
31783;DHT22;18351;47.560;9.708;2022-09-03T02:04:32;17.50;99.90
31783;DHT22;18351;47.560;9.708;2022-09-03T02:06:59;17.70;99.90
31783;DHT22;18351;47.560;9.708;2022-09-03T02:09:26;17.90;99.90
31783;DHT22;18351;47.560;9.708;2022-09-03T02:12:15;18.10;99.90
31783;DHT22;18351;47.560;9.708;2022-09-03T02:14:43;18.10;99.90
31783;DHT22;18351;47.560;9.708;2022-09-03T02:17:09;18.10;99.90
31783;DHT22;18351;47.560;9.708;2022-09-03T02:19:35;18.10;99.90
31783;DHT22;18351;47.560;9.708;2022-09-03T02:22:03;18.10;99.90
31783;DHT22;18351;47.560;9.708;2022-09-03T02:24:29;18.10;99.90
31783;DHT22;18351;47.560;9.708;2022-09-03T02:26:55;18.10;99.90
31783;DHT22;18351;47.560;9.708;2022-09-03T02:29:21;18.00;99.90
31783;DHT22;18351;47.560;9.708;2022-09-03T02:31:47;18.00;99.90
31783;DHT22;18351;47.560;9.708;2022-09-03T02:34:12;17.80;99.90
31783;DHT22;18351;47.560;9.708;2022-09-03T02:36:41;17.80;99.90
31783;DHT22;18351;47.560;9.708;2022-09-03T02:39:07;17.80;99.90
31783;DHT22;18351;47.560;9.708;2022-09-03T02:41:33;17.70;99.90
31783;DHT22;18351;47.560;9.708;2022-09-03T02:44:12;17.60;99.90
31783;DHT22;18351;47.560;9.708;2022-09-03T02:46:44;17.60;99.90
31783;DHT22;18351;47.560;9.708;2022-09-03T02:49:11;17.60;99.90
31783;DHT22;18351;47.560;9.708;2022-09-03T02:51:39;17.60;99.90
31783;DHT22;18351;47.560;9.708;2022-09-03T02:54:05;17.50;99.90
31783;DHT22;18351;47.560;9.708;2022-09-03T02:56:31;17.60;99.90
31783;DHT22;18351;47.560;9.708;2022-09-03T02:58:56;17.50;99.90
31783;DHT22;18351;47.560;9.708;2022-09-03T03:01:22;17.50;99.90
31783;DHT22;18351;47.560;9.708;2022-09-03T03:03:48;17.50;99.90
31783;DHT22;18351;47.560;9.708;2022-09-03T03:06:14;17.40;99.90
31783;DHT22;18351;47.560;9.708;2022-09-03T03:08:40;17.40;99.90
31783;DHT22;18351;47.560;9.708;2022-09-03T03:11:05;17.40;99.90
31783;DHT22;18351;47.560;9.708;2022-09-03T03:13:32;17.30;99.90
31783;DHT22;18351;47.560;9.708;2022-09-03T03:15:59;17.20;99.90
31783;DHT22;18351;47.560;9.708;2022-09-03T03:18:25;17.10;99.90
31783;DHT22;18351;47.560;9.708;2022-09-03T03:20:51;17.20;99.90
31783;DHT22;18351;47.560;9.708;2022-09-03T03:23:17;17.20;99.90
31783;DHT22;18351;47.560;9.708;2022-09-03T03:25:43;17.10;99.90
31783;DHT22;18351;47.560;9.708;2022-09-03T03:28:09;17.10;99.90
31783;DHT22;18351;47.560;9.708;2022-09-03T03:30:37;17.00;99.90
31783;DHT22;18351;47.560;9.708;2022-09-03T03:33:05;17.00;99.90
31783;DHT22;18351;47.560;9.708;2022-09-03T03:35:30;17.10;99.90
31783;DHT22;18351;47.560;9.708;2022-09-03T03:37:57;17.10;99.90
31783;DHT22;18351;47.560;9.708;2022-09-03T03:40:23;17.20;99.90
31783;DHT22;18351;47.560;9.708;2022-09-03T03:42:49;17.10;99.90
31783;DHT22;18351;47.560;9.708;2022-09-03T03:45:15;17.10;99.90
31783;DHT22;18351;47.560;9.708;2022-09-03T03:47:40;17.20;99.90
31783;DHT22;18351;47.560;9.708;2022-09-03T03:50:06;17.20;99.90
31783;DHT22;18351;47.560;9.708;2022-09-03T03:52:32;17.20;99.90
31783;DHT22;18351;47.560;9.708;2022-09-03T03:54:58;17.20;99.90
31783;DHT22;18351;47.560;9.708;2022-09-03T03:57:23;17.20;99.90
31783;DHT22;18351;47.560;9.708;2022-09-03T03:59:49;17.20;99.90
31783;DHT22;18351;47.560;9.708;2022-09-03T04:02:16;17.20;99.90
31783;DHT22;18351;47.560;9.708;2022-09-03T04:04:41;17.20;99.90
31783;DHT22;18351;47.560;9.708;2022-09-03T04:07:08;17.20;99.90
31783;DHT22;18351;47.560;9.708;2022-09-03T04:09:33;17.20;99.90
31783;DHT22;18351;47.560;9.708;2022-09-03T04:11:59;17.20;99.90
31783;DHT22;18351;47.560;9.708;2022-09-03T04:14:26;17.30;99.90
31783;DHT22;18351;47.560;9.708;2022-09-03T04:16:52;17.30;99.90
31783;DHT22;18351;47.560;9.708;2022-09-03T04:19:18;17.30;99.90
31783;DHT22;18351;47.560;9.708;2022-09-03T04:21:44;17.20;99.90
31783;DHT22;18351;47.560;9.708;2022-09-03T04:24:10;17.20;99.90
31783;DHT22;18351;47.560;9.708;2022-09-03T04:26:36;17.30;99.90
31783;DHT22;18351;47.560;9.708;2022-09-03T04:29:07;17.30;99.90
31783;DHT22;18351;47.560;9.708;2022-09-03T04:31:34;17.20;99.90
31783;DHT22;18351;47.560;9.708;2022-09-03T04:34:00;17.20;99.90
31783;DHT22;18351;47.560;9.708;2022-09-03T04:36:27;17.10;99.90
31783;DHT22;18351;47.560;9.708;2022-09-03T04:38:54;17.10;99.90
31783;DHT22;18351;47.560;9.708;2022-09-03T04:41:23;17.10;99.90
31783;DHT22;18351;47.560;9.708;2022-09-03T04:43:50;17.10;99.90
31783;DHT22;18351;47.560;9.708;2022-09-03T04:46:17;17.10;99.90
31783;DHT22;18351;47.560;9.708;2022-09-03T04:48:43;17.10;99.90
31783;DHT22;18351;47.560;9.708;2022-09-03T04:51:11;17.10;99.90
31783;DHT22;18351;47.560;9.708;2022-09-03T04:53:43;17.10;99.90
31783;DHT22;18351;47.560;9.708;2022-09-03T04:56:17;17.10;99.90
31783;DHT22;18351;47.560;9.708;2022-09-03T04:58:43;17.10;99.90
31783;DHT22;18351;47.560;9.708;2022-09-03T05:01:11;17.10;99.90
31783;DHT22;18351;47.560;9.708;2022-09-03T05:03:36;17.10;99.90
31783;DHT22;18351;47.560;9.708;2022-09-03T05:06:03;17.10;99.90
31783;DHT22;18351;47.560;9.708;2022-09-03T05:08:30;17.10;99.90
31783;DHT22;18351;47.560;9.708;2022-09-03T05:10:58;17.10;99.90
31783;DHT22;18351;47.560;9.708;2022-09-03T05:13:25;17.10;99.90
31783;DHT22;18351;47.560;9.708;2022-09-03T05:15:50;17.10;99.90
31783;DHT22;18351;47.560;9.708;2022-09-03T05:18:16;17.10;99.90
31783;DHT22;18351;47.560;9.708;2022-09-03T05:20:42;17.10;99.90
31783;DHT22;18351;47.560;9.708;2022-09-03T05:23:08;17.20;99.90
31783;DHT22;18351;47.560;9.708;2022-09-03T05:25:34;17.20;99.90
31783;DHT22;18351;47.560;9.708;2022-09-03T05:28:02;17.20;99.90
31783;DHT22;18351;47.560;9.708;2022-09-03T05:30:27;17.30;99.90
31783;DHT22;18351;47.560;9.708;2022-09-03T05:32:53;17.40;99.90
31783;DHT22;18351;47.560;9.708;2022-09-03T05:35:19;17.40;99.90
31783;DHT22;18351;47.560;9.708;2022-09-03T05:37:45;17.40;99.90
31783;DHT22;18351;47.560;9.708;2022-09-03T05:40:10;17.50;99.90
31783;DHT22;18351;47.560;9.708;2022-09-03T05:42:37;17.50;99.90
31783;DHT22;18351;47.560;9.708;2022-09-03T05:45:06;17.50;99.90
31783;DHT22;18351;47.560;9.708;2022-09-03T05:47:38;17.60;99.90
31783;DHT22;18351;47.560;9.708;2022-09-03T05:50:06;17.80;99.90
31783;DHT22;18351;47.560;9.708;2022-09-03T05:52:33;17.80;99.90
31783;DHT22;18351;47.560;9.708;2022-09-03T05:54:58;17.90;99.90
31783;DHT22;18351;47.560;9.708;2022-09-03T05:57:24;18.00;99.90
31783;DHT22;18351;47.560;9.708;2022-09-03T05:59:49;18.00;99.90
31783;DHT22;18351;47.560;9.708;2022-09-03T06:02:15;18.00;99.90
31783;DHT22;18351;47.560;9.708;2022-09-03T06:04:44;17.90;99.90
31783;DHT22;18351;47.560;9.708;2022-09-03T06:07:10;17.90;99.90
31783;DHT22;18351;47.560;9.708;2022-09-03T06:09:35;17.90;99.90
31783;DHT22;18351;47.560;9.708;2022-09-03T06:12:01;18.00;99.90
31783;DHT22;18351;47.560;9.708;2022-09-03T06:14:27;18.00;99.90
31783;DHT22;18351;47.560;9.708;2022-09-03T06:16:52;18.10;99.90
31783;DHT22;18351;47.560;9.708;2022-09-03T06:19:19;18.10;99.90
31783;DHT22;18351;47.560;9.708;2022-09-03T06:21:46;18.10;99.90
31783;DHT22;18351;47.560;9.708;2022-09-03T06:24:16;18.20;99.90
31783;DHT22;18351;47.560;9.708;2022-09-03T06:26:42;18.20;99.90
31783;DHT22;18351;47.560;9.708;2022-09-03T06:29:08;18.40;99.90
31783;DHT22;18351;47.560;9.708;2022-09-03T06:31:33;18.60;99.90
31783;DHT22;18351;47.560;9.708;2022-09-03T06:34:00;18.80;99.90
31783;DHT22;18351;47.560;9.708;2022-09-03T06:36:26;19.00;99.90
31783;DHT22;18351;47.560;9.708;2022-09-03T06:38:54;19.20;99.90
31783;DHT22;18351;47.560;9.708;2022-09-03T06:41:22;19.30;99.90
31783;DHT22;18351;47.560;9.708;2022-09-03T06:44:06;19.50;99.90
31783;DHT22;18351;47.560;9.708;2022-09-03T06:46:36;19.50;99.90
31783;DHT22;18351;47.560;9.708;2022-09-03T06:49:03;19.50;99.90
31783;DHT22;18351;47.560;9.708;2022-09-03T06:51:31;19.60;99.90
31783;DHT22;18351;47.560;9.708;2022-09-03T06:56:30;19.70;99.90
31783;DHT22;18351;47.560;9.708;2022-09-03T06:58:58;19.80;99.90
31783;DHT22;18351;47.560;9.708;2022-09-03T07:01:29;19.90;99.90
31783;DHT22;18351;47.560;9.708;2022-09-03T07:04:03;20.10;99.90
31783;DHT22;18351;47.560;9.708;2022-09-03T07:06:34;20.30;99.90
31783;DHT22;18351;47.560;9.708;2022-09-03T07:09:05;20.40;99.90
31783;DHT22;18351;47.560;9.708;2022-09-03T07:11:31;20.60;99.90
31783;DHT22;18351;47.560;9.708;2022-09-03T07:13:59;20.70;99.90
31783;DHT22;18351;47.560;9.708;2022-09-03T07:16:31;20.80;99.90
31783;DHT22;18351;47.560;9.708;2022-09-03T07:18:57;20.80;99.90
31783;DHT22;18351;47.560;9.708;2022-09-03T07:21:26;20.70;99.90
31783;DHT22;18351;47.560;9.708;2022-09-03T07:23:53;20.30;99.90
31783;DHT22;18351;47.560;9.708;2022-09-03T07:26:21;20.30;99.90
31783;DHT22;18351;47.560;9.708;2022-09-03T07:28:48;20.40;99.90
31783;DHT22;18351;47.560;9.708;2022-09-03T07:31:16;20.50;99.90
31783;DHT22;18351;47.560;9.708;2022-09-03T07:33:44;20.50;99.90
31783;DHT22;18351;47.560;9.708;2022-09-03T07:36:15;20.70;99.90
31783;DHT22;18351;47.560;9.708;2022-09-03T07:38:43;20.70;99.90
31783;DHT22;18351;47.560;9.708;2022-09-03T07:41:10;20.70;99.90
31783;DHT22;18351;47.560;9.708;2022-09-03T07:43:40;20.60;99.90
31783;DHT22;18351;47.560;9.708;2022-09-03T07:46:12;20.60;99.90
31783;DHT22;18351;47.560;9.708;2022-09-03T07:48:41;20.50;99.90
31783;DHT22;18351;47.560;9.708;2022-09-03T07:51:07;20.40;99.90
31783;DHT22;18351;47.560;9.708;2022-09-03T07:53:34;20.30;99.90
31783;DHT22;18351;47.560;9.708;2022-09-03T07:56:02;20.30;99.90
31783;DHT22;18351;47.560;9.708;2022-09-03T07:58:30;20.40;99.90
31783;DHT22;18351;47.560;9.708;2022-09-03T08:00:56;20.40;99.90
31783;DHT22;18351;47.560;9.708;2022-09-03T08:03:22;20.40;99.90
31783;DHT22;18351;47.560;9.708;2022-09-03T08:05:47;20.40;99.90
31783;DHT22;18351;47.560;9.708;2022-09-03T08:08:13;20.40;99.90
31783;DHT22;18351;47.560;9.708;2022-09-03T08:10:40;20.50;99.90
31783;DHT22;18351;47.560;9.708;2022-09-03T08:13:06;20.50;99.90
31783;DHT22;18351;47.560;9.708;2022-09-03T08:15:36;20.60;99.90
31783;DHT22;18351;47.560;9.708;2022-09-03T08:18:02;20.70;99.90
31783;DHT22;18351;47.560;9.708;2022-09-03T08:20:28;20.80;99.90
31783;DHT22;18351;47.560;9.708;2022-09-03T08:23:03;20.90;99.90
31783;DHT22;18351;47.560;9.708;2022-09-03T08:25:29;20.80;99.90
31783;DHT22;18351;47.560;9.708;2022-09-03T08:27:57;20.70;99.90
31783;DHT22;18351;47.560;9.708;2022-09-03T08:30:23;20.50;99.90
31783;DHT22;18351;47.560;9.708;2022-09-03T08:32:49;20.40;99.90
31783;DHT22;18351;47.560;9.708;2022-09-03T08:35:15;20.40;99.90
31783;DHT22;18351;47.560;9.708;2022-09-03T08:37:40;20.40;99.90
31783;DHT22;18351;47.560;9.708;2022-09-03T08:40:06;20.40;99.90
31783;DHT22;18351;47.560;9.708;2022-09-03T08:45:05;20.70;99.90
31783;DHT22;18351;47.560;9.708;2022-09-03T08:47:33;20.80;99.90
31783;DHT22;18351;47.560;9.708;2022-09-03T08:52:53;21.00;99.90
31783;DHT22;18351;47.560;9.708;2022-09-03T08:55:27;21.20;99.90
31783;DHT22;18351;47.560;9.708;2022-09-03T08:58:14;21.20;99.90
31783;DHT22;18351;47.560;9.708;2022-09-03T09:00:51;21.40;99.90
31783;DHT22;18351;47.560;9.708;2022-09-03T09:06:15;21.60;99.90
31783;DHT22;18351;47.560;9.708;2022-09-03T09:09:01;21.60;99.90
31783;DHT22;18351;47.560;9.708;2022-09-03T09:11:54;21.80;99.90
31783;DHT22;18351;47.560;9.708;2022-09-03T09:17:07;22.00;99.90
31783;DHT22;18351;47.560;9.708;2022-09-03T09:20:04;21.90;99.90
31783;DHT22;18351;47.560;9.708;2022-09-03T09:25:39;22.40;99.90
31783;DHT22;18351;47.560;9.708;2022-09-03T09:30:45;22.80;99.90
31783;DHT22;18351;47.560;9.708;2022-09-03T09:33:12;22.90;99.90
31783;DHT22;18351;47.560;9.708;2022-09-03T09:35:37;22.90;98.00
31783;DHT22;18351;47.560;9.708;2022-09-03T09:38:07;22.80;98.60
31783;DHT22;18351;47.560;9.708;2022-09-03T09:40:41;22.70;99.10
31783;DHT22;18351;47.560;9.708;2022-09-03T09:45:44;22.70;99.40
31783;DHT22;18351;47.560;9.708;2022-09-03T09:48:29;22.80;99.60
31783;DHT22;18351;47.560;9.708;2022-09-03T09:51:11;22.80;98.00
31783;DHT22;18351;47.560;9.708;2022-09-03T09:53:38;22.80;98.20
31783;DHT22;18351;47.560;9.708;2022-09-03T09:56:04;23.00;98.00
31783;DHT22;18351;47.560;9.708;2022-09-03T09:58:31;23.20;96.90
31783;DHT22;18351;47.560;9.708;2022-09-03T10:01:14;23.40;97.20
31783;DHT22;18351;47.560;9.708;2022-09-03T10:04:00;23.50;96.50
31783;DHT22;18351;47.560;9.708;2022-09-03T10:06:32;23.70;96.80
31783;DHT22;18351;47.560;9.708;2022-09-03T10:09:20;23.60;94.50
31783;DHT22;18351;47.560;9.708;2022-09-03T10:12:21;23.80;94.90
31783;DHT22;18351;47.560;9.708;2022-09-03T10:14:50;23.70;93.20
31783;DHT22;18351;47.560;9.708;2022-09-03T10:23:08;23.70;93.40
31783;DHT22;18351;47.560;9.708;2022-09-03T10:25:37;23.70;93.40
31783;DHT22;18351;47.560;9.708;2022-09-03T10:28:07;23.80;94.90
31783;DHT22;18351;47.560;9.708;2022-09-03T10:30:46;23.80;93.90
31783;DHT22;18351;47.560;9.708;2022-09-03T10:33:22;24.00;95.10
31783;DHT22;18351;47.560;9.708;2022-09-03T10:35:56;24.10;93.80
31783;DHT22;18351;47.560;9.708;2022-09-03T10:38:29;24.10;93.30
31783;DHT22;18351;47.560;9.708;2022-09-03T10:41:26;24.30;93.00
31783;DHT22;18351;47.560;9.708;2022-09-03T10:44:30;24.30;92.10
31783;DHT22;18351;47.560;9.708;2022-09-03T11:00:30;25.00;90.20
31783;DHT22;18351;47.560;9.708;2022-09-03T11:03:33;25.00;86.70
31783;DHT22;18351;47.560;9.708;2022-09-03T11:06:22;25.10;88.70
31783;DHT22;18351;47.560;9.708;2022-09-03T11:09:09;25.20;85.60
31783;DHT22;18351;47.560;9.708;2022-09-03T11:11:46;25.30;81.80
31783;DHT22;18351;47.560;9.708;2022-09-03T11:14:15;25.00;77.30
31783;DHT22;18351;47.560;9.708;2022-09-03T11:16:57;25.00;80.30
31783;DHT22;18351;47.560;9.708;2022-09-03T11:19:35;24.80;79.70
31783;DHT22;18351;47.560;9.708;2022-09-03T11:22:03;24.60;81.30
31783;DHT22;18351;47.560;9.708;2022-09-03T11:24:31;24.20;84.00
31783;DHT22;18351;47.560;9.708;2022-09-03T11:30:03;22.90;94.20
31783;DHT22;18351;47.560;9.708;2022-09-03T11:32:44;22.00;97.80
31783;DHT22;18351;47.560;9.708;2022-09-03T11:38:03;21.10;99.90
31783;DHT22;18351;47.560;9.708;2022-09-03T11:40:37;20.90;99.90
31783;DHT22;18351;47.560;9.708;2022-09-03T11:43:12;20.70;99.90
31783;DHT22;18351;47.560;9.708;2022-09-03T11:45:40;20.40;99.90
31783;DHT22;18351;47.560;9.708;2022-09-03T11:48:38;20.20;99.90
31783;DHT22;18351;47.560;9.708;2022-09-03T11:51:37;19.90;99.90
31783;DHT22;18351;47.560;9.708;2022-09-03T11:56:39;19.60;99.90
31783;DHT22;18351;47.560;9.708;2022-09-03T12:04:15;19.50;99.90
31783;DHT22;18351;47.560;9.708;2022-09-03T12:10:23;19.40;99.90
31783;DHT22;18351;47.560;9.708;2022-09-03T12:12:44;19.40;99.90
31783;DHT22;18351;47.560;9.708;2022-09-03T12:16:25;19.30;99.90
31783;DHT22;18351;47.560;9.708;2022-09-03T12:18:30;19.10;99.90
31783;DHT22;18351;47.560;9.708;2022-09-03T12:26:21;19.00;99.90
31783;DHT22;18351;47.560;9.708;2022-09-03T12:28:54;19.00;99.90
31783;DHT22;18351;47.560;9.708;2022-09-03T12:33:48;18.80;99.90
31783;DHT22;18351;47.560;9.708;2022-09-03T12:36:16;18.90;99.90
31783;DHT22;18351;47.560;9.708;2022-09-03T12:38:42;18.90;99.90
31783;DHT22;18351;47.560;9.708;2022-09-03T12:41:25;18.90;99.90
31783;DHT22;18351;47.560;9.708;2022-09-03T12:43:57;18.90;99.90
31783;DHT22;18351;47.560;9.708;2022-09-03T12:46:25;18.80;99.90
31783;DHT22;18351;47.560;9.708;2022-09-03T12:49:04;18.90;99.90
31783;DHT22;18351;47.560;9.708;2022-09-03T12:51:33;18.90;99.90
31783;DHT22;18351;47.560;9.708;2022-09-03T12:54:02;18.90;99.90
31783;DHT22;18351;47.560;9.708;2022-09-03T12:56:29;18.80;99.90
31783;DHT22;18351;47.560;9.708;2022-09-03T12:59:08;19.00;99.90
31783;DHT22;18351;47.560;9.708;2022-09-03T13:01:45;19.20;99.90
31783;DHT22;18351;47.560;9.708;2022-09-03T13:04:16;19.50;99.90
31783;DHT22;18351;47.560;9.708;2022-09-03T13:09:19;19.90;99.90
31783;DHT22;18351;47.560;9.708;2022-09-03T13:11:46;20.20;99.90
31783;DHT22;18351;47.560;9.708;2022-09-03T13:14:13;20.70;99.90
31783;DHT22;18351;47.560;9.708;2022-09-03T13:27:38;22.30;99.90
31783;DHT22;18351;47.560;9.708;2022-09-03T13:30:10;22.40;99.90
31783;DHT22;18351;47.560;9.708;2022-09-03T13:33:16;22.40;99.90
31783;DHT22;18351;47.560;9.708;2022-09-03T13:35:46;22.40;99.90
31783;DHT22;18351;47.560;9.708;2022-09-03T13:40:47;22.50;99.90
31783;DHT22;18351;47.560;9.708;2022-09-03T13:45:56;22.40;99.90
31783;DHT22;18351;47.560;9.708;2022-09-03T13:48:40;22.50;99.90
31783;DHT22;18351;47.560;9.708;2022-09-03T13:51:49;22.40;99.90
31783;DHT22;18351;47.560;9.708;2022-09-03T13:54:40;22.40;99.90
31783;DHT22;18351;47.560;9.708;2022-09-03T13:57:29;22.60;99.90
31783;DHT22;18351;47.560;9.708;2022-09-03T14:00:11;22.70;99.90
31783;DHT22;18351;47.560;9.708;2022-09-03T14:02:53;22.70;99.90
31783;DHT22;18351;47.560;9.708;2022-09-03T14:08:17;22.50;99.90
31783;DHT22;18351;47.560;9.708;2022-09-03T14:11:07;22.60;99.90
31783;DHT22;18351;47.560;9.708;2022-09-03T14:13:46;22.60;99.90
31783;DHT22;18351;47.560;9.708;2022-09-03T14:19:00;22.60;99.90
31783;DHT22;18351;47.560;9.708;2022-09-03T14:26:58;22.70;99.90
31783;DHT22;18351;47.560;9.708;2022-09-03T14:29:31;22.70;99.90
31783;DHT22;18351;47.560;9.708;2022-09-03T14:46:17;22.70;99.90
31783;DHT22;18351;47.560;9.708;2022-09-03T14:51:37;22.70;99.90
31783;DHT22;18351;47.560;9.708;2022-09-03T14:59:39;22.70;99.90
31783;DHT22;18351;47.560;9.708;2022-09-03T15:05:15;22.70;99.90
31783;DHT22;18351;47.560;9.708;2022-09-03T15:07:55;22.70;99.90
31783;DHT22;18351;47.560;9.708;2022-09-03T15:10:55;22.60;99.90
31783;DHT22;18351;47.560;9.708;2022-09-03T15:13:43;22.60;99.90
31783;DHT22;18351;47.560;9.708;2022-09-03T15:24:55;22.60;99.90
31783;DHT22;18351;47.560;9.708;2022-09-03T15:30:17;22.50;99.90
31783;DHT22;18351;47.560;9.708;2022-09-03T15:36:18;22.50;99.90
31783;DHT22;18351;47.560;9.708;2022-09-03T15:38:57;22.50;99.90
31783;DHT22;18351;47.560;9.708;2022-09-03T15:44:10;22.40;99.90
31783;DHT22;18351;47.560;9.708;2022-09-03T15:52:36;22.20;99.90
31783;DHT22;18351;47.560;9.708;2022-09-03T15:55:13;22.10;99.90
31783;DHT22;18351;47.560;9.708;2022-09-03T15:57:52;22.10;99.90
31783;DHT22;18351;47.560;9.708;2022-09-03T16:00:20;22.00;99.90
31783;DHT22;18351;47.560;9.708;2022-09-03T16:02:54;22.00;99.90
31783;DHT22;18351;47.560;9.708;2022-09-03T16:05:40;22.00;99.90
31783;DHT22;18351;47.560;9.708;2022-09-03T16:19:45;21.80;99.90
31783;DHT22;18351;47.560;9.708;2022-09-03T16:22:29;21.70;99.90
31783;DHT22;18351;47.560;9.708;2022-09-03T16:25:01;21.70;99.90
31783;DHT22;18351;47.560;9.708;2022-09-03T16:30:28;21.70;99.90
31783;DHT22;18351;47.560;9.708;2022-09-03T16:40:47;21.60;99.90
31783;DHT22;18351;47.560;9.708;2022-09-03T16:48:59;21.40;99.90
31783;DHT22;18351;47.560;9.708;2022-09-03T16:51:46;21.30;99.90
31783;DHT22;18351;47.560;9.708;2022-09-03T16:54:33;21.30;99.90
31783;DHT22;18351;47.560;9.708;2022-09-03T17:00:07;21.10;99.90
31783;DHT22;18351;47.560;9.708;2022-09-03T17:08:39;21.00;99.90
31783;DHT22;18351;47.560;9.708;2022-09-03T17:11:40;21.00;99.90
31783;DHT22;18351;47.560;9.708;2022-09-03T17:17:03;21.00;99.90
31783;DHT22;18351;47.560;9.708;2022-09-03T17:19:58;20.90;99.90
31783;DHT22;18351;47.560;9.708;2022-09-03T17:22:38;20.80;99.90
31783;DHT22;18351;47.560;9.708;2022-09-03T17:30:55;20.70;99.90
31783;DHT22;18351;47.560;9.708;2022-09-03T17:36:23;20.50;99.90
31783;DHT22;18351;47.560;9.708;2022-09-03T17:39:04;20.30;99.90
31783;DHT22;18351;47.560;9.708;2022-09-03T17:54:46;19.70;99.90
31783;DHT22;18351;47.560;9.708;2022-09-03T18:00:04;19.60;99.90
31783;DHT22;18351;47.560;9.708;2022-09-03T18:02:55;19.50;99.90
31783;DHT22;18351;47.560;9.708;2022-09-03T18:05:29;19.40;99.90
31783;DHT22;18351;47.560;9.708;2022-09-03T18:07:57;19.30;99.90
31783;DHT22;18351;47.560;9.708;2022-09-03T18:18:31;19.10;99.90
31783;DHT22;18351;47.560;9.708;2022-09-03T18:21:00;19.10;99.90
31783;DHT22;18351;47.560;9.708;2022-09-03T18:27:21;18.90;99.90
31783;DHT22;18351;47.560;9.708;2022-09-03T18:30:11;18.80;99.90
31783;DHT22;18351;47.560;9.708;2022-09-03T18:32:56;18.80;99.90
31783;DHT22;18351;47.560;9.708;2022-09-03T18:35:43;18.80;99.90
31783;DHT22;18351;47.560;9.708;2022-09-03T18:38:34;18.70;99.90
31783;DHT22;18351;47.560;9.708;2022-09-03T18:56:48;18.40;99.90
31783;DHT22;18351;47.560;9.708;2022-09-03T19:05:24;18.30;99.90
31783;DHT22;18351;47.560;9.708;2022-09-03T19:11:28;18.30;99.90
31783;DHT22;18351;47.560;9.708;2022-09-03T19:17:49;18.20;99.90
31783;DHT22;18351;47.560;9.708;2022-09-03T19:20:36;18.20;99.90
31783;DHT22;18351;47.560;9.708;2022-09-03T19:23:23;18.20;99.90
31783;DHT22;18351;47.560;9.708;2022-09-03T19:26:14;18.20;99.90
31783;DHT22;18351;47.560;9.708;2022-09-03T19:29:09;18.30;99.90
31783;DHT22;18351;47.560;9.708;2022-09-03T19:32:00;18.30;99.90
31783;DHT22;18351;47.560;9.708;2022-09-03T19:34:50;18.20;99.90
31783;DHT22;18351;47.560;9.708;2022-09-03T19:43:45;18.30;99.90
31783;DHT22;18351;47.560;9.708;2022-09-03T19:46:50;18.40;99.90
31783;DHT22;18351;47.560;9.708;2022-09-03T19:50:13;18.30;99.90
31783;DHT22;18351;47.560;9.708;2022-09-03T19:53:02;18.30;99.90
31783;DHT22;18351;47.560;9.708;2022-09-03T19:55:56;18.20;99.90
31783;DHT22;18351;47.560;9.708;2022-09-03T19:58:48;18.20;99.90
31783;DHT22;18351;47.560;9.708;2022-09-03T20:01:35;18.10;99.90
31783;DHT22;18351;47.560;9.708;2022-09-03T20:04:30;18.00;99.90
31783;DHT22;18351;47.560;9.708;2022-09-03T20:07:15;18.00;99.90
31783;DHT22;18351;47.560;9.708;2022-09-03T20:10:03;17.90;99.90
31783;DHT22;18351;47.560;9.708;2022-09-03T20:26:26;17.70;99.90
31783;DHT22;18351;47.560;9.708;2022-09-03T20:31:40;17.60;99.90
31783;DHT22;18351;47.560;9.708;2022-09-03T20:37:23;17.60;99.90
31783;DHT22;18351;47.560;9.708;2022-09-03T20:40:14;17.60;99.90
31783;DHT22;18351;47.560;9.708;2022-09-03T20:51:10;17.50;99.90
31783;DHT22;18351;47.560;9.708;2022-09-03T21:01:36;17.50;99.90
31783;DHT22;18351;47.560;9.708;2022-09-03T21:04:43;17.50;99.90
31783;DHT22;18351;47.560;9.708;2022-09-03T21:10:11;17.40;99.90
31783;DHT22;18351;47.560;9.708;2022-09-03T21:27:05;17.40;99.90
31783;DHT22;18351;47.560;9.708;2022-09-03T21:29:39;17.40;99.90
31783;DHT22;18351;47.560;9.708;2022-09-03T21:32:17;17.30;99.90
31783;DHT22;18351;47.560;9.708;2022-09-03T21:37:54;17.20;99.90
31783;DHT22;18351;47.560;9.708;2022-09-03T21:40:22;17.20;99.90
31783;DHT22;18351;47.560;9.708;2022-09-03T21:48:16;17.10;99.90
31783;DHT22;18351;47.560;9.708;2022-09-03T21:50:53;17.10;99.90
31783;DHT22;18351;47.560;9.708;2022-09-03T21:53:29;17.20;99.90
31783;DHT22;18351;47.560;9.708;2022-09-03T22:01:41;17.10;99.90
31783;DHT22;18351;47.560;9.708;2022-09-03T22:04:07;17.10;99.90
31783;DHT22;18351;47.560;9.708;2022-09-03T22:09:45;17.10;99.90
31783;DHT22;18351;47.560;9.708;2022-09-03T22:12:28;17.10;99.90
31783;DHT22;18351;47.560;9.708;2022-09-03T22:14:56;17.00;99.90
31783;DHT22;18351;47.560;9.708;2022-09-03T22:17:53;17.00;99.90
31783;DHT22;18351;47.560;9.708;2022-09-03T22:20:22;17.00;99.90
31783;DHT22;18351;47.560;9.708;2022-09-03T22:28:06;16.90;99.90
31783;DHT22;18351;47.560;9.708;2022-09-03T22:30:49;16.90;99.90
31783;DHT22;18351;47.560;9.708;2022-09-03T22:36:26;16.90;99.90
31783;DHT22;18351;47.560;9.708;2022-09-03T22:39:05;16.90;99.90
31783;DHT22;18351;47.560;9.708;2022-09-03T22:42:09;16.90;99.90